LBWN Airport Information

Runway Information
Runway 09 Length 8202 ft width 180 ft
Elevation 203 ft Threshold 0 ft Heading 97
Runway 27 Length 8202 ft Width 180 ft
Elevation 217 ft Threshold 0 ft Heading 277
Airport Frequencies
Type APP Name APP Frequency 121 MHZ
Type ATIS Name ATIS Frequency 118.075 MHZ
Type TWR Name TWR Frequency 119.5 MHZ
Airport Navaids
Type NDB Name Devnya Frequency 350 KHZ
Type NDB Name Varna Frequency 375 KHZ
Type NDB Name Varna Frequency 335 KHZ
Type NDB Name Varna Frequency 397 KHZ
Type NDB Name Varna Frequency 526 KHZ
Type VOR-DME Name Varna Frequency 112400 KHZ
Airport Weather Information & NOTAM
ADDS - METARS form results

(1915 UTC 18 July 2019)
Data provider http://aviationweather.gov/metar/data/
 
METAR text: LBWN 181900Z 05005KT CAVOK 21/19 Q1013 NOSIG
Conditions at: LBWN (VARNA , BG) observed 1900 UTC 18 July 2019
Temperature: 21.0°C (70°F)
Dewpoint: 19.0°C (66°F) [RH = 88%]
Pressure (altimeter): 29.91 inches Hg (1013.0 mb)
Winds: from the NE (50 degrees) at 6 MPH (5 knots; 2.6 m/s)
Visibility: 6 or more miles (10+ km)
Ceiling: ceiling and visibility are OK
Clouds: unknown
Weather: no significant weather observed at this time

METAR text: LBWN 181830Z 06004KT CAVOK 21/18 Q1013 NOSIG
Conditions at: LBWN (VARNA , BG) observed 1830 UTC 18 July 2019
Temperature: 21.0°C (70°F)
Dewpoint: 18.0°C (64°F) [RH = 83%]
Pressure (altimeter): 29.91 inches Hg (1013.0 mb)
Winds: from the ENE (60 degrees) at 5 MPH (4 knots; 2.1 m/s)
Visibility: 6 or more miles (10+ km)
Ceiling: ceiling and visibility are OK
Clouds: unknown
Weather: no significant weather observed at this time

Forecast for: LBWN (VARNA , BG)
Text: TAF LBWN 181700Z 1818/1918 VRB04KT CAVOK
Forecast period: 1800 UTC 18 July 2019 to 0600 UTC 19 July 2019
Forecast type: FROM: standard forecast or significant change
Winds: variable direction winds at 5 MPH (4 knots; 2.1 m/s)
Visibility: 6 or more miles 10+ km)
Ceiling: unknown
Clouds: missing
Weather: NSW  (no significant weather)
Text: BECMG 1906/1908 11010KT
Forecast period: 0600 to 1800 UTC 19 July 2019
Forecast type: BECOMING: Conditions expected to become as follows by 0800 UTC 19 July 2019
Winds: from the ESE (110 degrees) at 12 MPH (10 knots; 5.1 m/s)
Visibility: 6 or more miles 10+ km)
Ceiling: unknown
Clouds: missing
Weather: NSW  (no significant weather)